Time;durP1;ratioP1;P1;durP2;ratioP2;P2;SDS_P1;SDS_P2;PMS_P1;PMS_P2;Temp;Humidity;BMP_temperature;BMP_pressure;BME280_temperature;BME280_humidity;BME280_pressure;Samples;Min_cycle;Max_cycle;Signal;HPM_P1;HPM_P2
2023/09/13 00:01:47;;;;;;;;;20.00;16.50;;;;;22.29;53.09;101079.34;5062380;28;45254;-66
2023/09/13 00:04:12;;;;;;;;;17.00;14.75;;;;;22.28;52.82;101074.09;5078048;28;45474;-66
2023/09/13 00:06:38;;;;;;;;;19.00;16.25;;;;;22.26;52.82;101074.16;5077682;28;45434;-66
2023/09/13 00:09:06;;;;;;;;;20.00;17.25;;;;;22.27;53.12;101080.38;5066024;28;46161;-66
2023/09/13 00:11:31;;;;;;;;;14.00;14.00;;;;;22.28;53.36;101076.75;5062019;28;45229;-66
2023/09/13 00:13:57;;;;;;;;;20.75;18.25;;;;;22.26;52.80;101073.31;5062263;28;45371;-66
2023/09/13 00:16:22;;;;;;;;;20.00;17.50;;;;;22.29;52.68;101074.00;5062026;28;45444;-66
2023/09/13 00:18:47;;;;;;;;;16.50;15.50;;;;;22.31;52.98;101074.75;5061998;28;46223;-66
2023/09/13 00:21:13;;;;;;;;;19.75;17.50;;;;;22.31;52.71;101071.22;5062155;28;45306;-67
2023/09/13 00:23:38;;;;;;;;;20.25;15.75;;;;;22.32;52.96;101079.16;5062261;28;45252;-66
2023/09/13 00:26:03;;;;;;;;;17.75;16.75;;;;;22.31;52.74;101071.22;5061883;28;45486;-66
2023/09/13 00:28:29;;;;;;;;;19.00;18.50;;;;;22.33;53.09;101080.88;5061996;28;47143;-67
2023/09/13 00:30:54;;;;;;;;;14.25;14.25;;;;;22.35;53.03;101083.47;5061703;28;50968;-66
2023/09/13 00:33:19;;;;;;;;;17.25;15.00;;;;;22.33;53.05;101080.03;5061857;28;45368;-67
2023/09/13 00:35:46;;;;;;;;;18.75;18.00;;;;;22.35;52.83;101080.78;5061319;28;45380;-66
2023/09/13 00:38:11;;;;;;;;;17.25;15.75;;;;;22.35;53.24;101075.44;5061581;28;45490;-67
2023/09/13 00:40:36;;;;;;;;;15.50;14.25;;;;;22.34;53.25;101077.25;5061577;28;45296;-66
2023/09/13 00:43:02;;;;;;;;;16.75;14.50;;;;;22.35;53.27;101079.00;5061009;28;45257;-67
2023/09/13 00:45:32;;;;;;;;;20.75;18.50;;;;;22.38;53.30;101081.50;5061684;28;45243;-66
2023/09/13 00:47:58;;;;;;;;;17.00;17.00;;;;;22.39;53.10;101077.03;5061499;28;46373;-66
2023/09/13 00:50:24;;;;;;;;;14.25;12.75;;;;;22.39;53.16;101080.56;5061827;28;45314;-67
2023/09/13 00:52:50;;;;;;;;;15.25;14.00;;;;;22.40;53.36;101076.06;5061717;28;45318;-66
2023/09/13 00:55:18;;;;;;;;;18.00;18.00;;;;;22.40;53.48;101073.38;5061329;28;45453;-66
2023/09/13 00:57:44;;;;;;;;;18.75;16.75;;;;;22.40;53.11;101076.06;5061468;28;45238;-67
2023/09/13 01:00:10;;;;;;;;;17.25;16.50;;;;;22.44;52.95;101079.41;5061440;28;45299;-66
2023/09/13 01:02:40;;;;;;;;;18.75;14.75;;;;;22.44;52.81;101074.06;5061507;28;45144;-66
2023/09/13 01:05:11;;;;;;;;;16.75;15.75;;;;;22.44;53.34;101071.38;5060968;28;45536;-66
2023/09/13 01:07:40;;;;;;;;;18.75;17.75;;;;;22.43;53.59;101070.53;5064921;28;45231;-66
2023/09/13 01:10:06;;;;;;;;;19.25;17.00;;;;;22.42;53.24;101066.13;5061394;27;45419;-66
2023/09/13 01:12:31;;;;;;;;;15.00;12.75;;;;;22.38;53.24;101062.75;5061476;28;45320;-66
2023/09/13 01:14:57;;;;;;;;;16.25;14.00;;;;;22.37;53.17;101073.56;5061027;28;45236;-66
2023/09/13 01:18:09;;;;;;;;;17.50;14.75;;;;;22.40;53.16;101087.66;5060964;28;45344;-67
2023/09/13 01:20:56;;;;;;;;;11.00;9.25;;;;;22.39;53.24;101077.88;5036708;28;45509;-66
2023/09/13 01:23:53;;;;;;;;;17.25;14.00;;;;;22.40;53.24;101092.13;5059999;28;45573;-66
2023/09/13 01:26:25;;;;;;;;;16.25;13.75;;;;;22.38;53.09;101086.84;5059442;28;45514;-66
2023/09/13 01:28:54;;;;;;;;;14.50;14.00;;;;;22.36;53.21;101078.03;5060942;28;46465;-67
2023/09/13 01:31:21;;;;;;;;;14.00;13.00;;;;;22.38;53.57;101083.34;5061079;28;45303;-67
2023/09/13 01:33:46;;;;;;;;;13.50;12.75;;;;;22.36;53.29;101086.06;5060836;28;45292;-66
2023/09/13 01:36:12;;;;;;;;;13.50;13.50;;;;;22.37;53.00;101082.44;5060959;28;45559;-66
2023/09/13 01:38:38;;;;;;;;;7.75;7.75;;;;;22.36;53.39;101087.88;5060867;28;46045;-66
2023/09/13 01:41:07;;;;;;;;;15.25;13.50;;;;;22.38;53.15;101094.88;5060848;28;45286;-67
2023/09/13 01:43:34;;;;;;;;;14.00;12.00;;;;;22.36;53.03;101083.41;5060887;28;45205;-67
2023/09/13 01:46:01;;;;;;;;;13.75;13.75;;;;;22.36;53.12;101086.06;5059419;28;45442;-66
2023/09/13 01:48:28;;;;;;;;;15.75;13.25;;;;;22.37;52.93;101100.34;5060396;28;45319;-67
2023/09/13 01:50:54;;;;;;;;;16.00;14.25;;;;;22.36;53.10;101107.50;5060866;28;45339;-66
2023/09/13 01:53:19;;;;;;;;;17.50;13.25;;;;;22.33;53.19;101099.63;5060582;28;45335;-67
2023/09/13 01:55:45;;;;;;;;;14.00;14.00;;;;;22.35;53.29;101110.22;5060579;28;45248;-67
2023/09/13 01:58:10;;;;;;;;;14.25;14.25;;;;;22.31;53.27;101104.19;5060425;28;45319;-66
2023/09/13 02:00:36;;;;;;;;;13.25;13.25;;;;;22.33;53.23;101118.34;5060815;28;45414;-66
2023/09/13 02:03:02;;;;;;;;;14.25;14.25;;;;;22.33;53.34;101115.69;5060365;28;45359;-67
2023/09/13 02:05:27;;;;;;;;;13.75;13.75;;;;;22.33;53.41;101113.00;5060517;28;45238;-66
2023/09/13 02:07:52;;;;;;;;;17.75;13.75;;;;;;;;5065833;28;46164;-66
2023/09/13 02:10:17;;;;;;;;;13.50;11.75;;;;;22.27;53.02;101108.00;5059368;28;45272;-66
2023/09/13 02:12:43;;;;;;;;;14.25;13.00;;;;;22.29;53.57;101106.13;5060345;28;47391;-66
2023/09/13 02:15:08;;;;;;;;;13.00;12.50;;;;;;;;5060255;28;45303;-66
2023/09/13 02:17:33;;;;;;;;;16.75;12.25;;;;;22.27;53.08;101115.19;5059695;28;46057;-66
2023/09/13 02:19:59;;;;;;;;;16.50;11.25;;;;;22.27;53.19;101112.50;5060382;28;45283;-66
2023/09/13 02:22:24;;;;;;;;;12.00;12.00;;;;;22.26;53.29;101118.81;5060509;28;45409;-66
2023/09/13 02:24:49;;;;;;;;;14.25;13.25;;;;;22.24;53.15;101121.59;5060294;28;45305;-66
2023/09/13 02:27:15;;;;;;;;;9.00;8.00;;;;;22.24;53.50;101124.25;5059881;28;45242;-66
2023/09/13 02:29:40;;;;;;;;;15.00;14.50;;;;;22.22;53.09;101126.16;5060301;28;45204;-66
2023/09/13 02:32:05;;;;;;;;;14.25;13.00;;;;;22.19;53.38;101127.19;5060149;28;45760;-66
2023/09/13 02:34:31;;;;;;;;;15.75;14.00;;;;;22.12;52.74;101120.44;5060097;28;45557;-67
2023/09/13 02:36:56;;;;;;;;;18.00;15.75;;;;;22.16;53.09;101126.50;5060062;28;46122;-67
2023/09/13 02:39:34;;;;;;;;;12.00;12.00;;;;;22.16;52.81;101126.50;5058966;28;45273;-66
2023/09/13 02:42:00;;;;;;;;;14.50;12.75;;;;;22.14;53.41;101129.25;5060133;28;45461;-66
2023/09/13 02:44:25;;;;;;;;;15.50;13.75;;;;;22.13;53.43;101126.69;5060045;28;45478;-66
2023/09/13 02:46:50;;;;;;;;;13.00;12.00;;;;;22.13;53.30;101127.53;5058417;28;48532;-66
2023/09/13 02:49:16;;;;;;;;;11.75;11.75;;;;;22.10;53.32;101133.06;5059779;28;45449;-66
2023/09/13 02:51:41;;;;;;;;;14.00;12.50;;;;;22.08;53.21;101134.97;5059832;28;47641;-66
2023/09/13 02:54:07;;;;;;;;;14.00;13.25;;;;;22.11;53.19;101139.28;5059992;28;45481;-66
2023/09/13 02:56:32;;;;;;;;;16.00;16.00;;;;;22.11;53.33;101148.16;5059329;28;45204;-66
2023/09/13 02:58:58;;;;;;;;;14.50;12.00;;;;;22.08;52.83;101145.66;5059934;28;45260;-66
2023/09/13 03:01:23;;;;;;;;;15.50;13.00;;;;;22.07;53.17;101147.50;5063266;28;45222;-66
2023/09/13 03:03:48;;;;;;;;;14.75;12.50;;;;;22.10;52.63;101145.56;5063443;28;45312;-66
2023/09/13 03:06:15;;;;;;;;;15.75;12.50;;;;;22.10;53.34;101142.91;5062406;28;57134;-66
2023/09/13 03:08:41;;;;;;;;;16.75;13.00;;;;;22.11;53.41;101141.94;5066647;28;45480;-66
2023/09/13 03:11:14;;;;;;;;;14.75;14.00;;;;;22.11;53.08;101134.78;5063166;28;45421;-66
2023/09/13 03:13:40;;;;;;;;;17.75;13.75;;;;;22.13;53.71;101137.38;5063614;28;45415;-66
2023/09/13 03:16:12;;;;;;;;;16.00;16.00;;;;;22.12;53.66;101139.19;5061761;28;48089;-66
2023/09/13 03:18:37;;;;;;;;;18.25;17.75;;;;;22.13;52.93;101142.75;5061810;28;45231;-66
2023/09/13 03:21:07;;;;;;;;;17.75;15.25;;;;;22.13;53.45;101145.41;5063283;28;45228;-66
2023/09/13 03:23:32;;;;;;;;;12.75;12.75;;;;;22.14;53.35;101141.75;5063279;28;45490;-66
2023/09/13 03:25:57;;;;;;;;;15.50;15.50;;;;;22.14;53.43;101144.44;5061170;28;46169;-66
2023/09/13 03:28:23;;;;;;;;;13.00;12.50;;;;;22.13;53.35;101143.59;5061054;28;52003;-66
2023/09/13 03:30:48;;;;;;;;;16.50;16.25;;;;;22.14;53.41;101148.00;5062840;28;47606;-66
2023/09/13 03:33:13;;;;;;;;;14.00;13.50;;;;;22.16;53.79;101145.22;5061576;28;45594;-66
2023/09/13 03:35:38;;;;;;;;;15.25;13.25;;;;;22.11;53.41;101137.44;5062592;28;54139;-66
2023/09/13 03:38:04;;;;;;;;;13.75;13.75;;;;;22.16;53.46;101142.56;5062786;28;46346;-67
2023/09/13 03:40:29;;;;;;;;;14.50;11.75;;;;;22.16;53.58;101139.88;5062777;28;45411;-66
2023/09/13 03:42:54;;;;;;;;;16.50;13.75;;;;;22.18;53.71;101143.34;5062891;28;45446;-66
2023/09/13 03:45:20;;;;;;;;;16.75;15.75;;;;;22.19;53.22;101137.03;5062287;28;52024;-66
2023/09/13 03:47:45;;;;;;;;;17.25;15.00;;;;;22.18;53.50;101141.50;5062165;28;53810;-66
2023/09/13 03:50:10;;;;;;;;;18.50;15.50;;;;;22.19;53.57;101137.03;5078319;28;45383;-66
2023/09/13 03:52:35;;;;;;;;;20.25;17.75;;;;;22.18;53.67;101135.31;5077942;28;53898;-66
2023/09/13 03:55:01;;;;;;;;;23.75;21.00;;;;;22.21;53.53;101140.47;5076812;28;53832;-66
2023/09/13 03:57:26;;;;;;;;;15.50;14.25;;;;;22.18;53.71;101135.31;5042367;28;49193;-66
2023/09/13 03:59:51;;;;;;;;;17.50;17.00;;;;;22.18;53.71;101133.47;5042394;28;45546;-66
2023/09/13 04:02:17;;;;;;;;;22.25;18.00;;;;;22.20;53.69;101136.06;5041657;28;60587;-66
2023/09/13 04:04:42;;;;;;;;;21.50;19.00;;;;;22.20;53.60;101139.63;5041993;28;49414;-66
2023/09/13 04:07:07;;;;;;;;;17.25;15.25;;;;;22.20;53.37;101142.28;5041949;28;45281;-66
2023/09/13 04:09:33;;;;;;;;;19.25;19.25;;;;;22.20;53.63;101144.97;5066197;28;45261;-66
2023/09/13 04:11:58;;;;;;;;;18.75;16.00;;;;;22.18;53.48;101143.34;5059853;28;45246;-66
2023/09/13 04:14:23;;;;;;;;;17.75;16.50;;;;;22.18;53.62;101135.31;5062107;28;45290;-65
2023/09/13 04:16:48;;;;;;;;;16.25;14.50;;;;;22.18;53.44;101137.97;5062305;28;46436;-66
2023/09/13 04:19:14;;;;;;;;;14.25;13.25;;;;;22.15;53.88;101140.81;5061901;28;47764;-66
2023/09/13 04:21:39;;;;;;;;;22.00;16.00;;;;;22.13;53.45;101126.69;5062319;28;45198;-66
2023/09/13 04:24:05;;;;;;;;;15.25;14.50;;;;;22.13;53.48;101130.22;5062009;28;48092;-66
2023/09/13 04:26:30;;;;;;;;;16.50;13.00;;;;;22.13;53.24;101132.03;5060577;28;45312;-66
2023/09/13 04:28:55;;;;;;;;;17.25;14.00;;;;;22.12;53.59;101122.28;5062076;28;45224;-66
2023/09/13 04:31:21;;;;;;;;;16.00;16.00;;;;;22.12;53.59;101133.81;5062074;28;45673;-66
2023/09/13 04:33:51;;;;;;;;;16.75;13.50;;;;;22.11;53.24;101137.44;5060319;28;47017;-66
2023/09/13 04:36:17;;;;;;;;;16.25;16.25;;;;;22.11;53.70;101139.28;5060634;28;45333;-66
2023/09/13 04:38:42;;;;;;;;;16.75;16.75;;;;;22.06;53.27;101131.50;5062049;28;45225;-66
2023/09/13 04:41:13;;;;;;;;;19.75;18.25;;;;;22.07;53.52;101144.81;5061449;28;45642;-66
2023/09/13 04:43:38;;;;;;;;;15.50;15.25;;;;;22.05;53.75;101145.84;5060362;28;46075;-65
2023/09/13 04:46:03;;;;;;;;;15.25;13.75;;;;;22.06;53.72;101147.56;5076384;28;53280;-66
2023/09/13 04:48:29;;;;;;;;;13.25;12.25;;;;;22.04;53.74;101144.97;5061697;28;45335;-66
2023/09/13 04:50:54;;;;;;;;;14.00;13.00;;;;;22.04;53.90;101149.47;5061894;28;45334;-66
2023/09/13 04:53:19;;;;;;;;;16.75;15.00;;;;;22.03;53.29;101142.38;5061502;28;45339;-66
2023/09/13 04:55:45;;;;;;;;;17.50;15.25;;;;;22.02;53.29;101146.84;5059643;28;57447;-66
2023/09/13 04:58:10;;;;;;;;;19.00;16.00;;;;;22.00;53.31;101142.53;5061632;28;45371;-66
2023/09/13 05:00:35;;;;;;;;;16.50;14.75;;;;;22.00;53.65;101146.09;5061681;28;45573;-66
2023/09/13 05:03:01;;;;;;;;;12.50;12.25;;;;;22.01;53.37;101152.31;5061032;28;53080;-66
2023/09/13 05:05:26;;;;;;;;;14.00;11.25;;;;;22.01;53.70;101150.50;5061112;28;46763;-66
2023/09/13 05:07:53;;;;;;;;;13.25;12.25;;;;;22.00;53.30;101153.25;5067079;28;46821;-66
2023/09/13 05:10:18;;;;;;;;;16.50;13.50;;;;;21.99;53.23;101155.06;5060874;28;45353;-66
2023/09/13 05:12:43;;;;;;;;;15.00;14.75;;;;;21.97;53.52;101158.78;5059491;28;55307;-66
2023/09/13 05:15:09;;;;;;;;;14.00;13.00;;;;;21.95;53.34;101160.66;5061543;28;45184;-66
2023/09/13 05:17:35;;;;;;;;;12.00;10.50;;;;;21.95;53.81;101166.91;5061197;28;45431;-66
2023/09/13 05:20:00;;;;;;;;;14.25;12.75;;;;;21.94;54.00;101167.84;5061430;28;45224;-66
2023/09/13 05:22:26;;;;;;;;;14.75;14.75;;;;;21.95;53.54;101172.25;5059353;28;47202;-66
2023/09/13 05:24:51;;;;;;;;;16.00;14.00;;;;;21.95;53.47;101174.03;5061068;28;45302;-66
2023/09/13 05:27:16;;;;;;;;;15.00;15.00;;;;;21.94;53.75;101173.19;5059767;28;45363;-66
2023/09/13 05:29:41;;;;;;;;;20.00;16.50;;;;;21.94;53.40;101177.66;5060939;28;48539;-66
2023/09/13 05:32:07;;;;;;;;;13.25;13.25;;;;;21.95;53.52;101180.28;5060700;28;45300;-66
2023/09/13 05:34:32;;;;;;;;;12.75;11.75;;;;;21.92;53.70;101178.63;5060855;28;51346;-67
2023/09/13 05:36:57;;;;;;;;;16.50;12.00;;;;;21.95;53.38;101195.44;5061072;28;45277;-67
2023/09/13 05:39:23;;;;;;;;;16.00;16.00;;;;;21.95;53.25;101192.78;5060809;28;45303;-66
2023/09/13 05:41:49;;;;;;;;;13.00;13.00;;;;;21.94;53.61;101191.91;5060886;28;45442;-67
2023/09/13 05:44:20;;;;;;;;;10.50;10.50;;;;;21.91;53.55;101190.28;5059395;28;45324;-66
2023/09/13 05:46:46;;;;;;;;;18.25;16.00;;;;;21.91;53.32;101186.72;5060795;28;45392;-66
2023/09/13 05:49:11;;;;;;;;;17.50;15.75;;;;;21.92;53.99;101191.13;5060476;28;45575;-66
2023/09/13 05:51:36;;;;;;;;;15.25;12.50;;;;;21.94;53.23;101205.31;5060866;28;46228;-66
2023/09/13 05:54:02;;;;;;;;;10.00;10.00;;;;;21.91;53.53;101194.75;5060309;28;52876;-66
2023/09/13 05:56:27;;;;;;;;;14.50;14.50;;;;;21.94;53.21;101209.75;5059448;28;45542;-66
2023/09/13 05:58:52;;;;;;;;;15.25;12.00;;;;;21.94;53.76;101205.31;5060144;28;53904;-67
2023/09/13 06:01:18;;;;;;;;;10.75;10.75;;;;;21.93;53.13;101219.63;5060358;28;49722;-66
2023/09/13 06:03:43;;;;;;;;;11.00;10.00;;;;;21.93;53.68;101219.63;5058408;28;45380;-66
2023/09/13 06:06:09;;;;;;;;;17.50;14.75;;;;;21.94;53.43;101221.34;5058711;28;54356;-67
2023/09/13 06:08:34;;;;;;;;;14.00;13.75;;;;;21.92;53.07;101221.44;5064830;28;45467;-66
2023/09/13 06:10:59;;;;;;;;;11.50;10.00;;;;;21.94;53.57;101220.47;5060333;28;45451;-66
2023/09/13 06:13:25;;;;;;;;;13.25;12.00;;;;;21.91;53.52;101221.50;5058895;28;45336;-66
2023/09/13 06:15:50;;;;;;;;;12.50;10.75;;;;;21.92;53.69;101224.13;5060499;28;45397;-66
2023/09/13 06:18:27;;;;;;;;;19.25;13.75;;;;;21.92;53.47;101223.22;5059971;28;45302;-66
2023/09/13 06:20:54;;;;;;;;;13.25;11.00;;;;;21.93;53.66;101224.97;5060226;28;46456;-66
2023/09/13 06:23:39;;;;;;;;;20.25;18.50;;;;;21.89;53.77;101220.75;5060301;28;45190;-66
2023/09/13 06:26:05;;;;;;;;;10.00;10.00;;;;;21.92;53.42;101223.22;5060203;28;45408;-66
2023/09/13 06:28:31;;;;;;;;;12.75;12.25;;;;;21.92;53.39;101226.78;5060199;28;45216;-66
2023/09/13 06:30:58;;;;;;;;;14.00;12.75;;;;;21.92;53.45;101228.59;5058477;28;45273;-65
2023/09/13 06:33:25;;;;;;;;;14.50;12.75;;;;;21.94;53.44;101232.06;5058266;28;45410;-65
2023/09/13 06:35:51;;;;;;;;;11.00;10.25;;;;;21.93;53.52;101227.63;5059337;28;45341;-65
2023/09/13 06:38:17;;;;;;;;;13.00;11.25;;;;;21.92;53.25;101233.94;5059981;28;45510;-65
2023/09/13 06:40:47;;;;;;;;;10.00;10.00;;;;;21.96;53.64;101239.97;5059689;28;45336;-67
2023/09/13 06:43:13;;;;;;;;;14.50;11.50;;;;;21.98;53.49;101241.63;5060035;28;45448;-66
2023/09/13 06:45:39;;;;;;;;;15.00;13.25;;;;;22.00;53.39;101244.22;5059850;28;45307;-67
2023/09/13 06:48:04;;;;;;;;;10.50;10.50;;;;;22.01;53.25;101248.63;5057756;28;46591;-67
2023/09/13 06:50:30;;;;;;;;;11.75;11.00;;;;;22.00;53.34;101249.56;5059622;28;45423;-66
2023/09/13 06:52:56;;;;;;;;;16.00;13.50;;;;;22.02;53.36;101248.53;5058471;28;45288;-67
2023/09/13 06:55:21;;;;;;;;;13.00;10.75;;;;;22.03;53.52;101252.94;5059657;28;45320;-65
2023/09/13 06:57:48;;;;;;;;;11.50;8.75;;;;;22.06;53.44;101250.13;5059841;28;45320;-67
2023/09/13 07:00:14;;;;;;;;;10.50;9.50;;;;;22.10;53.40;101247.25;5059865;28;45324;-66
2023/09/13 07:02:39;;;;;;;;;10.75;9.50;;;;;22.11;53.17;101246.31;5058122;28;45317;-66
2023/09/13 07:05:05;;;;;;;;;12.25;10.75;;;;;22.14;53.45;101262.19;5059533;28;45224;-67
2023/09/13 07:07:31;;;;;;;;;10.25;10.25;;;;;22.16;53.26;101254.94;5061242;28;45381;-66
2023/09/13 07:09:56;;;;;;;;;11.00;10.00;;;;;22.19;53.09;101254.81;5059939;28;46966;-66
2023/09/13 07:12:22;;;;;;;;;12.00;9.25;;;;;22.22;53.39;101254.63;5058337;28;45274;-66
2023/09/13 07:14:47;;;;;;;;;9.75;9.25;;;;;22.23;53.65;101254.53;5058396;28;45246;-66
2023/09/13 07:17:15;;;;;;;;;7.50;7.50;;;;;22.22;53.71;101260.81;5059418;28;45356;-66
2023/09/13 07:19:40;;;;;;;;;9.50;9.50;;;;;22.26;53.33;101264.19;5059628;28;45315;-66
2023/09/13 07:22:05;;;;;;;;;7.00;5.75;;;;;22.28;53.40;101269.50;5059292;28;45341;-66
2023/09/13 07:24:30;;;;;;;;;8.25;8.25;;;;;22.29;53.09;101273.88;5059654;28;45274;-66
2023/09/13 07:26:56;;;;;;;;;6.75;6.75;;;;;22.33;53.21;101273.63;5059336;28;45318;-66
2023/09/13 07:29:21;;;;;;;;;13.75;11.00;;;;;22.32;53.13;101277.25;5059119;28;46142;-66
2023/09/13 07:31:46;;;;;;;;;10.25;8.50;;;;;22.35;53.64;101279.78;5059366;28;45429;-66
2023/09/13 07:34:12;;;;;;;;;10.50;10.00;;;;;22.39;53.08;101278.66;5058027;28;45480;-66
2023/09/13 07:36:38;;;;;;;;;11.50;11.00;;;;;22.43;53.59;101281.16;5059499;28;45457;-65
2023/09/13 07:39:03;;;;;;;;;10.50;8.75;;;;;22.46;53.29;101281.00;5057821;28;48166;-65
2023/09/13 07:41:29;;;;;;;;;9.50;8.00;;;;;22.45;53.18;101271.25;5059335;28;45209;-66
2023/09/13 07:43:54;;;;;;;;;10.50;9.50;;;;;22.48;53.19;101279.97;5059473;28;45406;-66
2023/09/13 07:46:22;;;;;;;;;8.50;7.75;;;;;22.53;53.20;101285.09;5060503;28;50641;-66
2023/09/13 07:48:47;;;;;;;;;13.25;9.75;;;;;22.54;53.24;101279.63;5062448;28;45564;-66
2023/09/13 07:51:12;;;;;;;;;10.00;10.00;;;;;22.58;53.40;101291.03;5062667;28;45390;-66
2023/09/13 07:53:38;;;;;;;;;12.50;11.25;;;;;22.58;53.29;101291.03;5062573;28;45520;-67
2023/09/13 07:56:03;;;;;;;;;14.50;11.00;;;;;22.59;52.82;101290.09;5062471;28;45315;-66
2023/09/13 07:58:29;;;;;;;;;12.00;12.00;;;;;22.64;53.22;101300.53;5078218;28;47169;-66
2023/09/13 08:00:55;;;;;;;;;13.50;12.25;;;;;22.63;53.31;101299.69;5062456;28;45337;-66
2023/09/13 08:03:20;;;;;;;;;11.50;11.50;;;;;22.66;52.88;101296.81;5062327;28;45441;-67
2023/09/13 08:05:47;;;;;;;;;10.00;9.50;;;;;22.70;53.20;101306.44;5062260;28;45538;-67
2023/09/13 08:08:15;;;;;;;;;9.25;8.25;;;;;22.72;53.28;101309.84;5068478;28;46079;-66
2023/09/13 08:10:41;;;;;;;;;14.00;14.00;;;;;22.76;52.94;101307.88;5062140;28;45316;-66
2023/09/13 08:13:07;;;;;;;;;33.25;31.25;;;;;22.79;53.02;101317.56;5062209;28;45414;-67
2023/09/13 08:15:32;;;;;;;;;10.50;10.50;;;;;22.82;53.04;101318.25;5062285;28;45472;-67
2023/09/13 08:17:57;;;;;;;;;11.00;11.00;;;;;22.87;53.11;101326.88;5060446;28;46920;-66
2023/09/13 08:20:23;;;;;;;;;16.00;16.00;;;;;22.91;52.68;101330.25;5062076;28;45274;-67
2023/09/13 08:22:48;;;;;;;;;21.75;18.50;;;;;22.94;53.11;101331.91;5061922;28;45342;-66
2023/09/13 08:25:13;;;;;;;;;13.25;11.50;;;;;22.96;53.00;101330.84;5061930;28;52797;-66
2023/09/13 08:27:39;;;;;;;;;41.00;34.75;;;;;23.02;52.53;101338.53;5061517;28;48926;-67
2023/09/13 08:30:05;;;;;;;;;11.00;11.00;;;;;23.07;52.88;101342.78;5062142;28;45306;-66
2023/09/13 08:32:30;;;;;;;;;17.50;14.00;;;;;23.05;52.79;101348.22;5061923;28;45363;-66
2023/09/13 08:34:55;;;;;;;;;49.50;41.75;;;;;23.09;52.74;101355.13;5060705;28;46021;-67
2023/09/13 08:37:21;;;;;;;;;11.25;11.25;;;;;23.12;52.65;101363.00;5061697;28;45337;-66
2023/09/13 08:39:46;;;;;;;;;12.25;10.75;;;;;23.14;52.78;101365.59;5062072;28;45342;-66
2023/09/13 08:42:12;;;;;;;;;360.00;330.75;;;;;23.19;52.52;101372.47;5061675;28;45506;-66
2023/09/13 08:44:39;;;;;;;;;13.75;12.50;;;;;23.18;52.40;101370.72;5060761;28;45430;-66
2023/09/13 08:47:08;;;;;;;;;15.25;12.75;;;;;23.23;52.30;101365.09;5061330;28;45281;-67
2023/09/13 08:49:35;;;;;;;;;14.75;14.00;;;;;23.24;52.42;101376.69;5061740;28;45460;-66
2023/09/13 08:52:02;;;;;;;;;16.50;15.75;;;;;23.28;52.61;101379.13;5061739;28;45243;-67
2023/09/13 08:54:28;;;;;;;;;13.00;12.25;;;;;23.31;52.42;101384.28;5061618;28;45467;-67
2023/09/13 08:56:55;;;;;;;;;14.25;12.75;;;;;23.35;52.34;101383.16;5060702;28;46280;-66
2023/09/13 08:59:21;;;;;;;;;14.25;14.25;;;;;23.38;52.33;101387.47;5077343;28;45241;-66
2023/09/13 09:01:48;;;;;;;;;15.50;11.25;;;;;23.40;51.86;101388.25;5061346;28;45213;-66
2023/09/13 09:04:18;;;;;;;;;12.75;12.25;;;;;23.45;52.19;101390.69;5060275;28;45529;-66
2023/09/13 09:06:44;;;;;;;;;12.25;11.50;;;;;23.47;51.95;101396.78;5061056;28;45516;-66
2023/09/13 09:09:12;;;;;;;;;13.75;11.00;;;;;23.48;51.94;101394.03;5066532;28;45328;-66
2023/09/13 09:11:41;;;;;;;;;16.00;12.50;;;;;23.53;52.03;101393.75;5060048;28;45319;-66
2023/09/13 09:14:08;;;;;;;;;14.25;12.25;;;;;23.58;51.83;101390.81;5061354;28;45474;-66
2023/09/13 09:16:35;;;;;;;;;16.25;15.00;;;;;23.60;51.83;101395.13;5061223;28;46087;-67
2023/09/13 09:19:01;;;;;;;;;12.50;12.00;;;;;23.63;52.00;101394.94;5061027;28;45334;-66
2023/09/13 09:21:27;;;;;;;;;15.25;14.00;;;;;23.66;52.02;101392.09;5061256;28;45224;-66
2023/09/13 09:23:54;;;;;;;;;15.75;14.00;;;;;23.68;51.56;101392.88;5059863;28;45506;-66
2023/09/13 09:26:20;;;;;;;;;15.75;14.75;;;;;23.72;51.83;101393.53;5060651;28;45335;-66
2023/09/13 09:28:46;;;;;;;;;15.75;14.50;;;;;23.75;51.78;101389.78;5059798;28;45271;-66
2023/09/13 09:31:12;;;;;;;;;13.50;12.50;;;;;23.81;51.73;101401.03;5060951;28;45412;-66
2023/09/13 09:33:39;;;;;;;;;11.75;10.75;;;;;23.88;51.42;101400.69;5059674;28;45672;-66
2023/09/13 09:36:05;;;;;;;;;18.50;17.25;;;;;23.92;51.51;101403.09;5060957;28;45252;-66
2023/09/13 09:38:31;;;;;;;;;17.75;16.50;;;;;23.95;51.78;101397.56;5060815;28;45248;-67
2023/09/13 09:40:59;;;;;;;;;19.25;16.00;;;;;24.00;51.79;101403.50;5042778;28;45170;-66
2023/09/13 09:43:25;;;;;;;;;18.25;15.50;;;;;24.03;51.24;101405.16;5060931;28;45437;-66
2023/09/13 09:45:50;;;;;;;;;19.75;18.00;;;;;24.10;51.00;101411.00;5059879;28;46182;-66
2023/09/13 09:48:15;;;;;;;;;18.25;16.00;;;;;24.13;51.66;101408.13;5060615;28;45392;-66
2023/09/13 09:50:54;;;;;;;;;17.00;17.00;;;;;24.15;51.58;101412.47;5060858;28;45329;-66
2023/09/13 09:53:21;;;;;;;;;14.25;14.00;;;;;24.18;51.24;101416.78;5060644;28;45448;-66
2023/09/13 09:55:47;;;;;;;;;21.00;19.00;;;;;24.19;51.52;101415.81;5059148;28;46143;-66
2023/09/13 09:58:13;;;;;;;;;23.00;17.25;;;;;24.22;51.37;101421.00;5060426;28;45274;-67
2023/09/13 10:00:47;;;;;;;;;20.50;17.75;;;;;24.23;51.28;101419.19;5060974;28;45287;-66
2023/09/13 10:03:17;;;;;;;;;24.00;16.25;;;;;24.24;51.12;101420.88;5060230;28;45503;-66
2023/09/13 10:06:06;;;;;;;;;18.25;18.00;;;;;24.22;51.23;101422.81;5058909;28;47098;-66
2023/09/13 10:08:45;;;;;;;;;19.75;16.00;;;;;24.20;51.15;101419.34;5062923;28;46294;-66
2023/09/13 10:11:13;;;;;;;;;13.25;12.75;;;;;24.24;50.69;101434.31;5060200;28;45310;-66
2023/09/13 10:13:40;;;;;;;;;19.50;19.00;;;;;24.24;50.84;101419.09;5060465;28;45470;-66
2023/09/13 10:16:08;;;;;;;;;17.00;15.75;;;;;24.26;50.97;101433.25;5060177;28;45304;-66
2023/09/13 10:18:52;;;;;;;;;18.50;15.00;;;;;24.25;50.91;101425.31;5060106;28;45473;-66
2023/09/13 10:21:32;;;;;;;;;18.00;16.50;;;;;24.25;50.77;101428.88;5060414;28;45463;-66
2023/09/13 10:24:04;;;;;;;;;17.75;15.75;;;;;24.26;51.03;101433.25;5059818;28;45847;-66
2023/09/13 10:26:31;;;;;;;;;20.25;14.75;;;;;24.26;50.78;101432.41;5059977;28;45321;-66
2023/09/13 10:29:04;;;;;;;;;18.75;16.00;;;;;24.26;50.84;101429.72;5060170;28;45348;-66
2023/09/13 10:31:33;;;;;;;;;17.00;15.75;;;;;24.25;50.76;101428.00;5059619;28;45473;-66
2023/09/13 10:34:04;;;;;;;;;16.75;15.75;;;;;24.24;50.94;101432.50;5059896;28;45537;-66
2023/09/13 10:36:36;;;;;;;;;19.25;15.50;;;;;24.22;51.05;101428.19;5058577;28;47595;-66
2023/09/13 10:39:25;;;;;;;;;21.00;18.75;;;;;24.19;50.34;101434.63;5072548;28;45469;-66
2023/09/13 10:42:03;;;;;;;;;17.00;15.75;;;;;24.18;50.81;101440.94;5038064;28;45457;-67
2023/09/13 10:44:29;;;;;;;;;15.25;14.00;;;;;24.14;50.95;101434.88;5047298;28;45216;-67
2023/09/13 10:46:56;;;;;;;;;17.50;16.00;;;;;24.15;50.54;101430.38;5059326;28;45248;-66
2023/09/13 10:49:23;;;;;;;;;17.50;15.75;;;;;24.11;50.77;101437.78;5058985;28;45448;-67
2023/09/13 10:51:50;;;;;;;;;18.75;18.50;;;;;24.10;50.50;101435.16;5059889;28;45351;-65
2023/09/13 10:54:16;;;;;;;;;19.00;18.25;;;;;24.09;50.17;101437.00;5059818;28;45359;-65
2023/09/13 10:56:41;;;;;;;;;21.50;20.25;;;;;24.08;50.68;101440.63;5059370;28;45501;-65
2023/09/13 10:59:09;;;;;;;;;18.00;17.25;;;;;24.06;50.28;101428.25;5059618;28;45415;-67
2023/09/13 11:01:36;;;;;;;;;20.00;17.50;;;;;24.07;50.22;101436.19;5059620;28;45169;-66
2023/09/13 11:04:03;;;;;;;;;18.50;18.50;;;;;24.05;50.66;101434.56;5058415;28;45385;-66
2023/09/13 11:06:29;;;;;;;;;21.75;19.25;;;;;24.06;50.37;101430.94;5059066;28;46103;-66
2023/09/13 11:08:56;;;;;;;;;22.75;19.75;;;;;24.06;50.38;101434.47;5065279;28;45321;-66
2023/09/13 11:11:22;;;;;;;;;19.75;17.50;;;;;24.08;50.68;101432.56;5059477;28;45366;-66